sensor_id;sensor_type;location;lat;lon;timestamp;temperature;humidity
18511;DHT22;9384;48.044;11.616;2022-12-18T00:01:32;-3.90;99.90
18511;DHT22;9384;48.044;11.616;2022-12-18T00:04:01;-4.00;99.90
18511;DHT22;9384;48.044;11.616;2022-12-18T00:06:29;-3.90;99.90
18511;DHT22;9384;48.044;11.616;2022-12-18T00:08:57;-3.90;99.90
18511;DHT22;9384;48.044;11.616;2022-12-18T00:11:26;-3.90;99.90
18511;DHT22;9384;48.044;11.616;2022-12-18T00:13:54;-3.90;99.90
18511;DHT22;9384;48.044;11.616;2022-12-18T00:16:24;-4.00;99.90
18511;DHT22;9384;48.044;11.616;2022-12-18T00:18:52;-4.10;99.90
18511;DHT22;9384;48.044;11.616;2022-12-18T00:21:21;-4.10;99.90
18511;DHT22;9384;48.044;11.616;2022-12-18T00:23:49;-4.10;99.90
18511;DHT22;9384;48.044;11.616;2022-12-18T00:26:17;-4.10;99.90
18511;DHT22;9384;48.044;11.616;2022-12-18T00:28:45;-4.10;99.90
18511;DHT22;9384;48.044;11.616;2022-12-18T00:31:14;-4.10;99.90
18511;DHT22;9384;48.044;11.616;2022-12-18T00:33:42;-4.20;99.90
18511;DHT22;9384;48.044;11.616;2022-12-18T00:36:11;-4.10;99.90
18511;DHT22;9384;48.044;11.616;2022-12-18T00:38:39;-4.20;99.90
18511;DHT22;9384;48.044;11.616;2022-12-18T00:41:07;-4.20;99.90
18511;DHT22;9384;48.044;11.616;2022-12-18T00:43:34;-4.30;99.90
18511;DHT22;9384;48.044;11.616;2022-12-18T00:46:00;-4.20;99.90
18511;DHT22;9384;48.044;11.616;2022-12-18T00:48:27;-4.20;99.90
18511;DHT22;9384;48.044;11.616;2022-12-18T00:50:55;-4.20;99.90
18511;DHT22;9384;48.044;11.616;2022-12-18T00:53:22;-4.30;99.90
18511;DHT22;9384;48.044;11.616;2022-12-18T00:55:48;-4.20;99.90
18511;DHT22;9384;48.044;11.616;2022-12-18T00:58:16;-4.20;99.90
18511;DHT22;9384;48.044;11.616;2022-12-18T01:00:43;-4.20;99.90
18511;DHT22;9384;48.044;11.616;2022-12-18T01:03:10;-4.30;99.90
18511;DHT22;9384;48.044;11.616;2022-12-18T01:05:39;-4.40;99.90
18511;DHT22;9384;48.044;11.616;2022-12-18T01:08:08;-4.40;99.90
18511;DHT22;9384;48.044;11.616;2022-12-18T01:10:34;-4.40;99.90
18511;DHT22;9384;48.044;11.616;2022-12-18T01:13:01;-4.40;99.90
18511;DHT22;9384;48.044;11.616;2022-12-18T01:15:28;-4.40;99.90
18511;DHT22;9384;48.044;11.616;2022-12-18T01:17:55;-4.40;99.90
18511;DHT22;9384;48.044;11.616;2022-12-18T01:20:22;-4.40;99.90
18511;DHT22;9384;48.044;11.616;2022-12-18T01:22:49;-4.40;99.90
18511;DHT22;9384;48.044;11.616;2022-12-18T01:25:17;-4.40;99.90
18511;DHT22;9384;48.044;11.616;2022-12-18T01:27:44;-4.40;99.90
18511;DHT22;9384;48.044;11.616;2022-12-18T01:30:11;-4.40;99.90
18511;DHT22;9384;48.044;11.616;2022-12-18T01:32:38;-4.40;99.90
18511;DHT22;9384;48.044;11.616;2022-12-18T01:35:06;-4.40;99.90
18511;DHT22;9384;48.044;11.616;2022-12-18T01:37:33;-4.40;99.90
18511;DHT22;9384;48.044;11.616;2022-12-18T01:40:00;-4.30;99.90
18511;DHT22;9384;48.044;11.616;2022-12-18T01:42:28;-4.40;99.90
18511;DHT22;9384;48.044;11.616;2022-12-18T01:45:02;-4.30;99.90
18511;DHT22;9384;48.044;11.616;2022-12-18T01:47:33;-4.30;99.90
18511;DHT22;9384;48.044;11.616;2022-12-18T01:50:04;-4.30;99.90
18511;DHT22;9384;48.044;11.616;2022-12-18T01:52:33;-4.30;99.90
18511;DHT22;9384;48.044;11.616;2022-12-18T01:55:00;-4.40;99.90
18511;DHT22;9384;48.044;11.616;2022-12-18T01:57:30;-4.40;99.90
18511;DHT22;9384;48.044;11.616;2022-12-18T01:59:59;-4.30;99.90
18511;DHT22;9384;48.044;11.616;2022-12-18T02:02:29;-4.40;99.90
18511;DHT22;9384;48.044;11.616;2022-12-18T02:04:57;-4.40;99.90
18511;DHT22;9384;48.044;11.616;2022-12-18T02:07:32;-4.40;99.90
18511;DHT22;9384;48.044;11.616;2022-12-18T02:10:06;-4.30;99.90
18511;DHT22;9384;48.044;11.616;2022-12-18T02:12:42;-4.30;99.90
18511;DHT22;9384;48.044;11.616;2022-12-18T02:15:15;-4.40;99.90
18511;DHT22;9384;48.044;11.616;2022-12-18T02:17:47;-4.30;99.90
18511;DHT22;9384;48.044;11.616;2022-12-18T02:20:20;-4.40;99.90
18511;DHT22;9384;48.044;11.616;2022-12-18T02:23:01;-4.40;99.90
18511;DHT22;9384;48.044;11.616;2022-12-18T02:25:43;-4.40;99.90
18511;DHT22;9384;48.044;11.616;2022-12-18T02:28:15;-4.40;99.90
18511;DHT22;9384;48.044;11.616;2022-12-18T02:30:47;-4.40;99.90
18511;DHT22;9384;48.044;11.616;2022-12-18T02:33:14;-4.40;99.90
18511;DHT22;9384;48.044;11.616;2022-12-18T02:35:42;-4.40;99.90
18511;DHT22;9384;48.044;11.616;2022-12-18T02:38:12;-4.40;99.90
18511;DHT22;9384;48.044;11.616;2022-12-18T02:40:40;-4.40;99.90
18511;DHT22;9384;48.044;11.616;2022-12-18T02:43:09;-4.50;99.90
18511;DHT22;9384;48.044;11.616;2022-12-18T02:45:46;-4.50;99.90
18511;DHT22;9384;48.044;11.616;2022-12-18T02:48:13;-4.50;99.90
18511;DHT22;9384;48.044;11.616;2022-12-18T02:50:45;-4.50;99.90
18511;DHT22;9384;48.044;11.616;2022-12-18T02:53:18;-4.50;99.90
18511;DHT22;9384;48.044;11.616;2022-12-18T02:55:57;-4.50;99.90
18511;DHT22;9384;48.044;11.616;2022-12-18T02:58:30;-4.50;99.90
18511;DHT22;9384;48.044;11.616;2022-12-18T03:01:02;-4.50;99.90
18511;DHT22;9384;48.044;11.616;2022-12-18T03:03:33;-4.50;99.90
18511;DHT22;9384;48.044;11.616;2022-12-18T03:06:04;-4.50;99.90
18511;DHT22;9384;48.044;11.616;2022-12-18T03:08:36;-4.60;99.90
18511;DHT22;9384;48.044;11.616;2022-12-18T03:11:06;-4.70;99.90
18511;DHT22;9384;48.044;11.616;2022-12-18T03:13:37;-4.70;99.90
18511;DHT22;9384;48.044;11.616;2022-12-18T03:16:09;-4.70;99.90
18511;DHT22;9384;48.044;11.616;2022-12-18T03:18:40;-4.60;99.90
18511;DHT22;9384;48.044;11.616;2022-12-18T03:21:10;-4.50;99.90
18511;DHT22;9384;48.044;11.616;2022-12-18T03:23:42;-4.60;99.90
18511;DHT22;9384;48.044;11.616;2022-12-18T03:26:14;-4.50;99.90
18511;DHT22;9384;48.044;11.616;2022-12-18T03:28:46;-4.50;99.90
18511;DHT22;9384;48.044;11.616;2022-12-18T03:31:15;-4.50;99.90
18511;DHT22;9384;48.044;11.616;2022-12-18T03:33:46;-4.40;99.90
18511;DHT22;9384;48.044;11.616;2022-12-18T03:36:14;-4.40;99.90
18511;DHT22;9384;48.044;11.616;2022-12-18T03:38:41;-4.40;99.90
18511;DHT22;9384;48.044;11.616;2022-12-18T03:41:15;-4.40;99.90
18511;DHT22;9384;48.044;11.616;2022-12-18T03:43:49;-4.40;99.90
18511;DHT22;9384;48.044;11.616;2022-12-18T03:46:25;-4.40;99.90
18511;DHT22;9384;48.044;11.616;2022-12-18T03:48:59;-4.40;99.90
18511;DHT22;9384;48.044;11.616;2022-12-18T03:51:35;-4.40;99.90
18511;DHT22;9384;48.044;11.616;2022-12-18T03:54:04;-4.40;99.90
18511;DHT22;9384;48.044;11.616;2022-12-18T03:56:36;-4.40;99.90
18511;DHT22;9384;48.044;11.616;2022-12-18T03:59:06;-4.40;99.90
18511;DHT22;9384;48.044;11.616;2022-12-18T04:01:38;-4.40;99.90
18511;DHT22;9384;48.044;11.616;2022-12-18T04:04:07;-4.40;99.90
18511;DHT22;9384;48.044;11.616;2022-12-18T04:06:35;-4.50;99.90
18511;DHT22;9384;48.044;11.616;2022-12-18T04:09:03;-4.50;99.90
18511;DHT22;9384;48.044;11.616;2022-12-18T04:11:30;-4.50;99.90
18511;DHT22;9384;48.044;11.616;2022-12-18T04:13:58;-4.50;99.90
18511;DHT22;9384;48.044;11.616;2022-12-18T04:16:25;-4.50;99.90
18511;DHT22;9384;48.044;11.616;2022-12-18T04:18:53;-4.50;99.90
18511;DHT22;9384;48.044;11.616;2022-12-18T04:21:20;-4.50;99.90
18511;DHT22;9384;48.044;11.616;2022-12-18T04:23:48;-4.40;99.90
18511;DHT22;9384;48.044;11.616;2022-12-18T04:26:14;-4.40;99.90
18511;DHT22;9384;48.044;11.616;2022-12-18T04:28:41;-4.50;99.90
18511;DHT22;9384;48.044;11.616;2022-12-18T04:31:08;-4.50;99.90
18511;DHT22;9384;48.044;11.616;2022-12-18T04:33:35;-4.50;99.90
18511;DHT22;9384;48.044;11.616;2022-12-18T04:36:04;-4.50;99.90
18511;DHT22;9384;48.044;11.616;2022-12-18T04:38:31;-4.50;99.90
18511;DHT22;9384;48.044;11.616;2022-12-18T04:40:58;-4.50;99.90
18511;DHT22;9384;48.044;11.616;2022-12-18T04:43:24;-4.40;99.90
18511;DHT22;9384;48.044;11.616;2022-12-18T04:45:51;-4.50;99.90
18511;DHT22;9384;48.044;11.616;2022-12-18T04:48:18;-4.50;99.90
18511;DHT22;9384;48.044;11.616;2022-12-18T04:50:46;-4.50;99.90
18511;DHT22;9384;48.044;11.616;2022-12-18T04:53:14;-4.50;99.90
18511;DHT22;9384;48.044;11.616;2022-12-18T04:55:41;-4.50;99.90
18511;DHT22;9384;48.044;11.616;2022-12-18T04:58:08;-4.60;99.90
18511;DHT22;9384;48.044;11.616;2022-12-18T05:00:35;-4.70;99.90
18511;DHT22;9384;48.044;11.616;2022-12-18T05:03:02;-4.70;99.90
18511;DHT22;9384;48.044;11.616;2022-12-18T05:05:29;-4.70;99.90
18511;DHT22;9384;48.044;11.616;2022-12-18T05:07:56;-4.70;99.90
18511;DHT22;9384;48.044;11.616;2022-12-18T05:10:24;-4.60;99.90
18511;DHT22;9384;48.044;11.616;2022-12-18T05:12:51;-4.70;99.90
18511;DHT22;9384;48.044;11.616;2022-12-18T05:15:28;-4.70;99.90
18511;DHT22;9384;48.044;11.616;2022-12-18T05:17:55;-4.70;99.90
18511;DHT22;9384;48.044;11.616;2022-12-18T05:20:22;-4.70;99.90
18511;DHT22;9384;48.044;11.616;2022-12-18T05:22:50;-4.80;99.90
18511;DHT22;9384;48.044;11.616;2022-12-18T05:25:17;-4.80;99.90
18511;DHT22;9384;48.044;11.616;2022-12-18T05:27:45;-4.80;99.90
18511;DHT22;9384;48.044;11.616;2022-12-18T05:30:13;-4.90;99.90
18511;DHT22;9384;48.044;11.616;2022-12-18T05:32:40;-4.90;99.90
18511;DHT22;9384;48.044;11.616;2022-12-18T05:35:09;-4.80;99.90
18511;DHT22;9384;48.044;11.616;2022-12-18T05:37:36;-4.70;99.90
18511;DHT22;9384;48.044;11.616;2022-12-18T05:40:04;-4.70;99.90
18511;DHT22;9384;48.044;11.616;2022-12-18T05:42:31;-4.70;99.90
18511;DHT22;9384;48.044;11.616;2022-12-18T05:44:59;-4.90;99.90
18511;DHT22;9384;48.044;11.616;2022-12-18T05:47:27;-4.80;99.90
18511;DHT22;9384;48.044;11.616;2022-12-18T05:49:54;-4.80;99.90
18511;DHT22;9384;48.044;11.616;2022-12-18T05:52:21;-4.70;99.90
18511;DHT22;9384;48.044;11.616;2022-12-18T05:54:48;-4.70;99.90
18511;DHT22;9384;48.044;11.616;2022-12-18T05:57:15;-4.70;99.90
18511;DHT22;9384;48.044;11.616;2022-12-18T05:59:41;-4.70;99.90
18511;DHT22;9384;48.044;11.616;2022-12-18T06:02:10;-4.70;99.90
18511;DHT22;9384;48.044;11.616;2022-12-18T06:04:36;-4.70;99.90
18511;DHT22;9384;48.044;11.616;2022-12-18T06:07:03;-4.80;99.90
18511;DHT22;9384;48.044;11.616;2022-12-18T06:09:30;-4.80;99.90
18511;DHT22;9384;48.044;11.616;2022-12-18T06:11:57;-4.80;99.90
18511;DHT22;9384;48.044;11.616;2022-12-18T06:14:24;-4.80;99.90
18511;DHT22;9384;48.044;11.616;2022-12-18T06:16:51;-4.80;99.90
18511;DHT22;9384;48.044;11.616;2022-12-18T06:19:19;-4.80;99.90
18511;DHT22;9384;48.044;11.616;2022-12-18T06:21:46;-4.80;99.90
18511;DHT22;9384;48.044;11.616;2022-12-18T06:24:14;-4.80;99.90
18511;DHT22;9384;48.044;11.616;2022-12-18T06:26:41;-4.80;99.90
18511;DHT22;9384;48.044;11.616;2022-12-18T06:29:08;-4.80;99.90
18511;DHT22;9384;48.044;11.616;2022-12-18T06:31:35;-4.80;99.90
18511;DHT22;9384;48.044;11.616;2022-12-18T06:34:02;-4.80;99.90
18511;DHT22;9384;48.044;11.616;2022-12-18T06:36:31;-4.80;99.90
18511;DHT22;9384;48.044;11.616;2022-12-18T06:38:58;-4.90;99.90
18511;DHT22;9384;48.044;11.616;2022-12-18T06:41:25;-4.80;99.90
18511;DHT22;9384;48.044;11.616;2022-12-18T06:43:51;-4.80;99.90
18511;DHT22;9384;48.044;11.616;2022-12-18T06:46:18;-4.80;99.90
18511;DHT22;9384;48.044;11.616;2022-12-18T06:48:47;-4.80;99.90
18511;DHT22;9384;48.044;11.616;2022-12-18T06:51:17;-4.80;99.90
18511;DHT22;9384;48.044;11.616;2022-12-18T06:53:45;-4.80;99.90
18511;DHT22;9384;48.044;11.616;2022-12-18T06:56:12;-4.80;99.90
18511;DHT22;9384;48.044;11.616;2022-12-18T06:58:39;-4.90;99.90
18511;DHT22;9384;48.044;11.616;2022-12-18T07:01:08;-5.00;99.90
18511;DHT22;9384;48.044;11.616;2022-12-18T07:03:35;-4.90;99.90
18511;DHT22;9384;48.044;11.616;2022-12-18T07:06:02;-4.90;99.90
18511;DHT22;9384;48.044;11.616;2022-12-18T07:08:29;-4.80;99.90
18511;DHT22;9384;48.044;11.616;2022-12-18T07:10:57;-4.80;99.90
18511;DHT22;9384;48.044;11.616;2022-12-18T07:13:25;-4.80;99.90
18511;DHT22;9384;48.044;11.616;2022-12-18T07:15:52;-4.80;99.90
18511;DHT22;9384;48.044;11.616;2022-12-18T07:18:19;-4.80;99.90
18511;DHT22;9384;48.044;11.616;2022-12-18T07:20:46;-4.80;99.90
18511;DHT22;9384;48.044;11.616;2022-12-18T07:23:12;-4.90;99.90
18511;DHT22;9384;48.044;11.616;2022-12-18T07:25:40;-4.80;99.90
18511;DHT22;9384;48.044;11.616;2022-12-18T07:28:08;-4.90;99.90
18511;DHT22;9384;48.044;11.616;2022-12-18T07:30:37;-4.80;99.90
18511;DHT22;9384;48.044;11.616;2022-12-18T07:33:04;-4.80;99.90
18511;DHT22;9384;48.044;11.616;2022-12-18T07:35:32;-4.80;99.90
18511;DHT22;9384;48.044;11.616;2022-12-18T07:38:02;-4.80;99.90
18511;DHT22;9384;48.044;11.616;2022-12-18T07:40:28;-4.80;99.90
18511;DHT22;9384;48.044;11.616;2022-12-18T07:42:55;-4.70;99.90
18511;DHT22;9384;48.044;11.616;2022-12-18T07:45:23;-4.70;99.90
18511;DHT22;9384;48.044;11.616;2022-12-18T07:47:50;-4.70;99.90
18511;DHT22;9384;48.044;11.616;2022-12-18T07:50:17;-5.10;99.90
18511;DHT22;9384;48.044;11.616;2022-12-18T07:52:44;-5.00;99.90
18511;DHT22;9384;48.044;11.616;2022-12-18T07:55:10;-5.00;99.90
18511;DHT22;9384;48.044;11.616;2022-12-18T07:57:37;-4.90;99.90
18511;DHT22;9384;48.044;11.616;2022-12-18T08:00:05;-4.90;99.90
18511;DHT22;9384;48.044;11.616;2022-12-18T08:02:33;-4.90;99.90
18511;DHT22;9384;48.044;11.616;2022-12-18T08:05:00;-5.00;99.90
18511;DHT22;9384;48.044;11.616;2022-12-18T08:07:27;-5.00;99.90
18511;DHT22;9384;48.044;11.616;2022-12-18T08:09:54;-4.90;99.90
18511;DHT22;9384;48.044;11.616;2022-12-18T08:12:21;-4.90;99.90
18511;DHT22;9384;48.044;11.616;2022-12-18T08:14:48;-4.80;99.90
18511;DHT22;9384;48.044;11.616;2022-12-18T08:17:14;-4.80;99.90
18511;DHT22;9384;48.044;11.616;2022-12-18T08:19:43;-4.80;99.90
18511;DHT22;9384;48.044;11.616;2022-12-18T08:22:09;-4.70;99.90
18511;DHT22;9384;48.044;11.616;2022-12-18T08:24:36;-4.70;99.90
18511;DHT22;9384;48.044;11.616;2022-12-18T08:27:03;-4.70;99.90
18511;DHT22;9384;48.044;11.616;2022-12-18T08:29:30;-4.70;99.90
18511;DHT22;9384;48.044;11.616;2022-12-18T08:31:57;-4.70;99.90
18511;DHT22;9384;48.044;11.616;2022-12-18T08:34:24;-4.60;99.90
18511;DHT22;9384;48.044;11.616;2022-12-18T08:36:52;-4.60;99.90
18511;DHT22;9384;48.044;11.616;2022-12-18T08:39:19;-4.60;99.90
18511;DHT22;9384;48.044;11.616;2022-12-18T08:41:46;-4.70;99.90
18511;DHT22;9384;48.044;11.616;2022-12-18T08:44:32;-4.70;99.90
18511;DHT22;9384;48.044;11.616;2022-12-18T08:47:07;-4.50;99.90
18511;DHT22;9384;48.044;11.616;2022-12-18T08:49:35;-4.60;99.90
18511;DHT22;9384;48.044;11.616;2022-12-18T08:52:03;-4.60;99.90
18511;DHT22;9384;48.044;11.616;2022-12-18T08:54:30;-4.50;99.90
18511;DHT22;9384;48.044;11.616;2022-12-18T08:56:57;-4.50;99.90
18511;DHT22;9384;48.044;11.616;2022-12-18T08:59:24;-4.50;99.90
18511;DHT22;9384;48.044;11.616;2022-12-18T09:01:53;-4.60;99.90
18511;DHT22;9384;48.044;11.616;2022-12-18T09:04:20;-4.60;99.90
18511;DHT22;9384;48.044;11.616;2022-12-18T09:06:47;-4.70;99.90
18511;DHT22;9384;48.044;11.616;2022-12-18T09:09:15;-4.70;99.90
18511;DHT22;9384;48.044;11.616;2022-12-18T09:11:42;-4.70;99.90
18511;DHT22;9384;48.044;11.616;2022-12-18T09:14:10;-4.70;99.90
18511;DHT22;9384;48.044;11.616;2022-12-18T09:16:37;-4.70;99.90
18511;DHT22;9384;48.044;11.616;2022-12-18T09:19:04;-4.70;99.90
18511;DHT22;9384;48.044;11.616;2022-12-18T09:21:33;-4.70;99.90
18511;DHT22;9384;48.044;11.616;2022-12-18T09:24:00;-4.60;99.90
18511;DHT22;9384;48.044;11.616;2022-12-18T09:26:28;-4.40;99.90
18511;DHT22;9384;48.044;11.616;2022-12-18T09:28:55;-4.30;99.90
18511;DHT22;9384;48.044;11.616;2022-12-18T09:31:24;-4.30;99.90
18511;DHT22;9384;48.044;11.616;2022-12-18T09:33:51;-4.20;99.90
18511;DHT22;9384;48.044;11.616;2022-12-18T09:36:18;-4.20;99.90
18511;DHT22;9384;48.044;11.616;2022-12-18T09:38:45;-4.20;99.90
18511;DHT22;9384;48.044;11.616;2022-12-18T09:41:33;-4.20;99.90
18511;DHT22;9384;48.044;11.616;2022-12-18T09:44:09;-4.20;99.90
18511;DHT22;9384;48.044;11.616;2022-12-18T09:46:39;-4.10;99.90
18511;DHT22;9384;48.044;11.616;2022-12-18T09:49:13;-4.20;99.90
18511;DHT22;9384;48.044;11.616;2022-12-18T09:51:44;-4.10;99.90
18511;DHT22;9384;48.044;11.616;2022-12-18T09:54:14;-4.10;99.90
18511;DHT22;9384;48.044;11.616;2022-12-18T09:56:44;-4.00;99.90
18511;DHT22;9384;48.044;11.616;2022-12-18T09:59:19;-4.00;99.90
18511;DHT22;9384;48.044;11.616;2022-12-18T10:01:47;-4.20;99.90
18511;DHT22;9384;48.044;11.616;2022-12-18T10:04:14;-4.10;99.90
18511;DHT22;9384;48.044;11.616;2022-12-18T10:06:45;-4.10;99.90
18511;DHT22;9384;48.044;11.616;2022-12-18T10:09:21;-4.30;99.90
18511;DHT22;9384;48.044;11.616;2022-12-18T10:11:58;-4.30;99.90
18511;DHT22;9384;48.044;11.616;2022-12-18T10:14:32;-4.10;99.90
18511;DHT22;9384;48.044;11.616;2022-12-18T10:17:07;-4.20;99.90
18511;DHT22;9384;48.044;11.616;2022-12-18T10:19:42;-4.20;99.90
18511;DHT22;9384;48.044;11.616;2022-12-18T10:22:22;-4.20;99.90
18511;DHT22;9384;48.044;11.616;2022-12-18T10:24:58;-4.30;99.90
18511;DHT22;9384;48.044;11.616;2022-12-18T10:27:30;-4.30;99.90
18511;DHT22;9384;48.044;11.616;2022-12-18T10:29:58;-4.10;99.90
18511;DHT22;9384;48.044;11.616;2022-12-18T10:32:26;-4.00;99.90
18511;DHT22;9384;48.044;11.616;2022-12-18T10:34:56;-4.10;99.90
18511;DHT22;9384;48.044;11.616;2022-12-18T10:37:26;-4.20;99.90
18511;DHT22;9384;48.044;11.616;2022-12-18T10:40:09;-4.60;99.90
18511;DHT22;9384;48.044;11.616;2022-12-18T10:42:38;-4.60;99.90
18511;DHT22;9384;48.044;11.616;2022-12-18T10:45:13;-4.90;99.90
18511;DHT22;9384;48.044;11.616;2022-12-18T10:47:45;-4.80;99.90
18511;DHT22;9384;48.044;11.616;2022-12-18T10:50:24;-4.70;99.90
18511;DHT22;9384;48.044;11.616;2022-12-18T10:52:55;-4.60;99.90
18511;DHT22;9384;48.044;11.616;2022-12-18T10:55:25;-4.50;99.90
18511;DHT22;9384;48.044;11.616;2022-12-18T10:58:13;-4.30;99.90
18511;DHT22;9384;48.044;11.616;2022-12-18T11:00:41;-4.20;99.90
18511;DHT22;9384;48.044;11.616;2022-12-18T11:03:29;-4.10;99.90
18511;DHT22;9384;48.044;11.616;2022-12-18T11:06:09;-4.00;99.90
18511;DHT22;9384;48.044;11.616;2022-12-18T11:08:36;-3.90;99.90
18511;DHT22;9384;48.044;11.616;2022-12-18T11:11:09;-4.00;99.90
18511;DHT22;9384;48.044;11.616;2022-12-18T11:13:53;-4.20;99.90
18511;DHT22;9384;48.044;11.616;2022-12-18T11:16:22;-4.30;99.90
18511;DHT22;9384;48.044;11.616;2022-12-18T11:18:49;-4.30;99.90
18511;DHT22;9384;48.044;11.616;2022-12-18T11:21:16;-4.40;99.90
18511;DHT22;9384;48.044;11.616;2022-12-18T11:23:47;-4.30;99.90
18511;DHT22;9384;48.044;11.616;2022-12-18T11:26:15;-4.20;99.90
18511;DHT22;9384;48.044;11.616;2022-12-18T11:28:47;-4.30;99.90
18511;DHT22;9384;48.044;11.616;2022-12-18T11:31:24;-4.10;99.90
18511;DHT22;9384;48.044;11.616;2022-12-18T11:34:01;-3.90;99.90
18511;DHT22;9384;48.044;11.616;2022-12-18T11:36:32;-3.80;99.90
18511;DHT22;9384;48.044;11.616;2022-12-18T11:39:05;-3.80;99.90
18511;DHT22;9384;48.044;11.616;2022-12-18T11:41:36;-3.70;99.90
18511;DHT22;9384;48.044;11.616;2022-12-18T11:44:26;-3.80;99.90
18511;DHT22;9384;48.044;11.616;2022-12-18T11:46:59;-3.70;99.90
18511;DHT22;9384;48.044;11.616;2022-12-18T11:49:32;-3.60;99.90
18511;DHT22;9384;48.044;11.616;2022-12-18T11:52:04;-3.60;99.90
18511;DHT22;9384;48.044;11.616;2022-12-18T11:54:35;-3.70;99.90
18511;DHT22;9384;48.044;11.616;2022-12-18T11:57:09;-3.80;99.90
18511;DHT22;9384;48.044;11.616;2022-12-18T11:59:48;-3.60;99.90
18511;DHT22;9384;48.044;11.616;2022-12-18T12:02:34;-3.70;99.90
18511;DHT22;9384;48.044;11.616;2022-12-18T12:05:18;-3.60;99.90
18511;DHT22;9384;48.044;11.616;2022-12-18T12:07:51;-3.70;99.90
18511;DHT22;9384;48.044;11.616;2022-12-18T12:10:30;-3.70;99.90
18511;DHT22;9384;48.044;11.616;2022-12-18T12:13:10;-3.70;99.90
18511;DHT22;9384;48.044;11.616;2022-12-18T12:15:44;-3.50;99.90
18511;DHT22;9384;48.044;11.616;2022-12-18T12:18:23;-3.50;99.90
18511;DHT22;9384;48.044;11.616;2022-12-18T12:21:00;-3.40;99.90
18511;DHT22;9384;48.044;11.616;2022-12-18T12:23:35;-3.40;99.90
18511;DHT22;9384;48.044;11.616;2022-12-18T12:26:06;-3.40;99.90
18511;DHT22;9384;48.044;11.616;2022-12-18T12:28:56;-3.40;99.90
18511;DHT22;9384;48.044;11.616;2022-12-18T12:31:35;-3.40;99.90
18511;DHT22;9384;48.044;11.616;2022-12-18T12:34:11;-3.30;99.90
18511;DHT22;9384;48.044;11.616;2022-12-18T12:36:50;-3.40;99.90
18511;DHT22;9384;48.044;11.616;2022-12-18T12:39:23;-3.40;99.90
18511;DHT22;9384;48.044;11.616;2022-12-18T12:41:53;-3.60;99.90
18511;DHT22;9384;48.044;11.616;2022-12-18T12:44:41;-3.60;99.90
18511;DHT22;9384;48.044;11.616;2022-12-18T12:47:14;-3.60;99.90
18511;DHT22;9384;48.044;11.616;2022-12-18T12:49:42;-3.70;99.90
18511;DHT22;9384;48.044;11.616;2022-12-18T12:52:16;-3.60;99.90
18511;DHT22;9384;48.044;11.616;2022-12-18T12:54:44;-3.80;99.90
18511;DHT22;9384;48.044;11.616;2022-12-18T12:57:15;-3.70;99.90
18511;DHT22;9384;48.044;11.616;2022-12-18T13:03:34;-3.50;99.90
18511;DHT22;9384;48.044;11.616;2022-12-18T13:06:07;-3.60;99.90
18511;DHT22;9384;48.044;11.616;2022-12-18T13:08:54;-3.60;99.90
18511;DHT22;9384;48.044;11.616;2022-12-18T13:11:35;-3.60;99.90
18511;DHT22;9384;48.044;11.616;2022-12-18T13:14:26;-3.60;99.90
18511;DHT22;9384;48.044;11.616;2022-12-18T13:17:15;-3.70;99.90
18511;DHT22;9384;48.044;11.616;2022-12-18T13:19:44;-3.60;99.90
18511;DHT22;9384;48.044;11.616;2022-12-18T13:22:22;-3.60;99.90
18511;DHT22;9384;48.044;11.616;2022-12-18T13:24:49;-3.60;99.90
18511;DHT22;9384;48.044;11.616;2022-12-18T13:27:51;-3.60;99.90
18511;DHT22;9384;48.044;11.616;2022-12-18T13:30:43;-3.60;99.90
18511;DHT22;9384;48.044;11.616;2022-12-18T13:33:42;-3.50;99.90
18511;DHT22;9384;48.044;11.616;2022-12-18T13:36:15;-3.60;99.90
18511;DHT22;9384;48.044;11.616;2022-12-18T13:38:43;-3.60;99.90
18511;DHT22;9384;48.044;11.616;2022-12-18T13:41:24;-3.60;99.90
18511;DHT22;9384;48.044;11.616;2022-12-18T13:43:53;-3.60;99.90
18511;DHT22;9384;48.044;11.616;2022-12-18T13:46:27;-3.70;99.90
18511;DHT22;9384;48.044;11.616;2022-12-18T13:48:57;-3.80;99.90
18511;DHT22;9384;48.044;11.616;2022-12-18T13:51:28;-3.80;99.90
18511;DHT22;9384;48.044;11.616;2022-12-18T13:53:58;-3.90;99.90
18511;DHT22;9384;48.044;11.616;2022-12-18T13:56:28;-3.80;99.90
18511;DHT22;9384;48.044;11.616;2022-12-18T13:59:14;-3.80;99.90
18511;DHT22;9384;48.044;11.616;2022-12-18T14:01:43;-3.80;99.90
18511;DHT22;9384;48.044;11.616;2022-12-18T14:04:11;-3.70;99.90
18511;DHT22;9384;48.044;11.616;2022-12-18T14:06:40;-3.80;99.90
18511;DHT22;9384;48.044;11.616;2022-12-18T14:09:13;-3.80;99.90
18511;DHT22;9384;48.044;11.616;2022-12-18T14:11:45;-4.00;99.90
18511;DHT22;9384;48.044;11.616;2022-12-18T14:14:14;-4.20;99.90
18511;DHT22;9384;48.044;11.616;2022-12-18T14:16:41;-4.40;99.90
18511;DHT22;9384;48.044;11.616;2022-12-18T14:19:12;-4.50;99.90
18511;DHT22;9384;48.044;11.616;2022-12-18T14:21:45;-4.40;99.90
18511;DHT22;9384;48.044;11.616;2022-12-18T14:24:14;-4.30;99.90
18511;DHT22;9384;48.044;11.616;2022-12-18T14:26:42;-4.30;99.90
18511;DHT22;9384;48.044;11.616;2022-12-18T14:29:21;-4.30;99.90
18511;DHT22;9384;48.044;11.616;2022-12-18T14:32:04;-4.40;99.90
18511;DHT22;9384;48.044;11.616;2022-12-18T14:34:31;-4.40;99.90
18511;DHT22;9384;48.044;11.616;2022-12-18T14:36:59;-4.50;99.90
18511;DHT22;9384;48.044;11.616;2022-12-18T14:39:26;-4.50;99.90
18511;DHT22;9384;48.044;11.616;2022-12-18T14:41:54;-4.40;99.90
18511;DHT22;9384;48.044;11.616;2022-12-18T14:44:20;-4.40;99.90
18511;DHT22;9384;48.044;11.616;2022-12-18T14:46:49;-4.30;99.90
18511;DHT22;9384;48.044;11.616;2022-12-18T14:49:21;-4.40;99.90
18511;DHT22;9384;48.044;11.616;2022-12-18T14:51:51;-4.40;99.90
18511;DHT22;9384;48.044;11.616;2022-12-18T14:54:21;-4.40;99.90
18511;DHT22;9384;48.044;11.616;2022-12-18T14:56:50;-4.60;99.90
18511;DHT22;9384;48.044;11.616;2022-12-18T14:59:20;-4.70;99.90
18511;DHT22;9384;48.044;11.616;2022-12-18T15:01:59;-4.90;99.90
18511;DHT22;9384;48.044;11.616;2022-12-18T15:04:28;-4.90;99.90
18511;DHT22;9384;48.044;11.616;2022-12-18T15:07:09;-4.90;99.90
18511;DHT22;9384;48.044;11.616;2022-12-18T15:09:40;-4.80;99.90
18511;DHT22;9384;48.044;11.616;2022-12-18T15:12:22;-4.90;99.90
18511;DHT22;9384;48.044;11.616;2022-12-18T15:14:52;-4.80;99.90
18511;DHT22;9384;48.044;11.616;2022-12-18T15:17:21;-4.70;99.90
18511;DHT22;9384;48.044;11.616;2022-12-18T15:19:50;-4.80;99.90
18511;DHT22;9384;48.044;11.616;2022-12-18T15:22:20;-4.80;99.90
18511;DHT22;9384;48.044;11.616;2022-12-18T15:24:49;-4.90;99.90
18511;DHT22;9384;48.044;11.616;2022-12-18T15:27:30;-4.80;99.90
18511;DHT22;9384;48.044;11.616;2022-12-18T15:30:16;-4.90;99.90
18511;DHT22;9384;48.044;11.616;2022-12-18T15:32:44;-4.90;99.90
18511;DHT22;9384;48.044;11.616;2022-12-18T15:35:14;-4.90;99.90
18511;DHT22;9384;48.044;11.616;2022-12-18T15:37:42;-4.90;99.90
18511;DHT22;9384;48.044;11.616;2022-12-18T15:40:13;-4.90;99.90
18511;DHT22;9384;48.044;11.616;2022-12-18T15:42:41;-5.10;99.90
18511;DHT22;9384;48.044;11.616;2022-12-18T15:45:25;-5.10;99.90
18511;DHT22;9384;48.044;11.616;2022-12-18T15:47:52;-5.10;99.90
18511;DHT22;9384;48.044;11.616;2022-12-18T15:50:19;-5.00;99.90
18511;DHT22;9384;48.044;11.616;2022-12-18T15:52:48;-5.00;99.90
18511;DHT22;9384;48.044;11.616;2022-12-18T15:55:19;-5.10;99.90